createdAt,value
2016-09-16T00:00:31.161Z,1007.86
2016-09-16T00:01:42.167Z,1007.84
2016-09-16T00:02:53.172Z,1007.77
2016-09-16T00:04:04.374Z,1007.81
2016-09-16T00:05:15.379Z,1007.84
2016-09-16T00:06:26.580Z,1007.87
2016-09-16T00:07:37.589Z,1007.9
2016-09-16T00:08:48.791Z,1007.92
2016-09-16T00:09:59.791Z,1007.9
2016-09-16T00:11:10.850Z,1007.89
2016-09-16T00:12:21.866Z,1007.89
2016-09-16T00:13:32.869Z,1007.79
2016-09-16T00:14:44.083Z,1007.85
2016-09-16T00:15:55.080Z,1007.83
2016-09-16T00:17:06.151Z,1007.87
2016-09-16T00:18:17.148Z,1007.86
2016-09-16T00:19:28.155Z,1007.9
2016-09-16T00:20:39.396Z,1007.89
2016-09-16T00:21:50.398Z,1007.87
2016-09-16T00:23:01.400Z,1007.83
2016-09-16T00:24:12.423Z,1007.82
2016-09-16T00:25:23.437Z,1007.8
2016-09-16T00:26:34.434Z,1007.78
2016-09-16T00:27:45.442Z,1007.82
2016-09-16T00:28:56.641Z,1007.82
2016-09-16T00:30:07.650Z,1007.84
2016-09-16T00:31:18.675Z,1007.84
2016-09-16T00:32:29.678Z,1007.86
2016-09-16T00:33:40.879Z,1007.9
2016-09-16T00:34:51.888Z,1007.86
2016-09-16T00:36:02.901Z,1007.82
2016-09-16T00:37:13.912Z,1007.89
2016-09-16T00:38:24.914Z,1007.92
2016-09-16T00:39:35.919Z,1007.91
2016-09-16T00:40:46.925Z,1007.97
2016-09-16T00:41:57.935Z,1008.02
2016-09-16T00:43:08.938Z,1008
2016-09-16T00:44:19.965Z,1008.07
2016-09-16T00:45:30.969Z,1008.04
2016-09-16T00:46:42.384Z,1008.12
2016-09-16T00:47:53.386Z,1008.13
2016-09-16T00:49:04.389Z,1008.16
2016-09-16T00:50:15.389Z,1008.18
2016-09-16T00:51:26.396Z,1008.13
2016-09-16T00:52:37.410Z,1008.13
2016-09-16T00:53:48.413Z,1008.12
2016-09-16T00:54:59.619Z,1008.18
2016-09-16T00:56:10.824Z,1008.18
2016-09-16T00:57:21.832Z,1008.19
2016-09-16T00:58:32.837Z,1008.17
2016-09-16T00:59:43.856Z,1008.15
2016-09-16T01:00:54.884Z,1008.11
2016-09-16T01:02:05.889Z,1008.14
2016-09-16T01:03:16.892Z,1008.13
2016-09-16T01:04:27.898Z,1008.16
2016-09-16T01:05:38.898Z,1008.13
2016-09-16T01:06:49.899Z,1008.13
2016-09-16T01:08:00.900Z,1008.19
2016-09-16T01:09:12.112Z,1008.19
2016-09-16T01:10:23.115Z,1008.22
2016-09-16T01:11:34.165Z,1008.23
2016-09-16T01:12:45.170Z,1008.2
2016-09-16T01:13:56.380Z,1008.23
2016-09-16T01:15:07.381Z,1008.25
2016-09-16T01:16:18.589Z,1008.27
2016-09-16T01:17:29.603Z,1008.3
2016-09-16T01:18:40.615Z,1008.32
2016-09-16T01:19:51.617Z,1008.3
2016-09-16T01:21:02.820Z,1008.32
2016-09-16T01:22:13.828Z,1008.34
2016-09-16T01:23:24.828Z,1008.36
2016-09-16T01:24:35.850Z,1008.41
2016-09-16T01:25:46.853Z,1008.42
2016-09-16T01:26:58.058Z,1008.4
2016-09-16T01:28:09.074Z,1008.39
2016-09-16T01:29:20.078Z,1008.44
2016-09-16T01:30:31.076Z,1008.51
2016-09-16T01:31:42.078Z,1008.52
2016-09-16T01:32:53.298Z,1008.46
2016-09-16T01:34:04.307Z,1008.45
2016-09-16T01:35:15.323Z,1008.42
2016-09-16T01:36:26.333Z,1008.43
2016-09-16T01:37:37.341Z,1008.41
2016-09-16T01:38:48.348Z,1008.39
2016-09-16T01:39:59.344Z,1008.39
2016-09-16T01:41:10.356Z,1008.46
2016-09-16T01:42:21.364Z,1008.46
2016-09-16T01:43:32.359Z,1008.4
2016-09-16T01:44:43.363Z,1008.43
2016-09-16T01:45:54.364Z,1008.4
2016-09-16T01:47:05.377Z,1008.42
2016-09-16T01:48:16.379Z,1008.42
2016-09-16T01:49:27.381Z,1008.47
2016-09-16T01:50:38.397Z,1008.43
2016-09-16T01:51:49.414Z,1008.4
2016-09-16T01:53:00.425Z,1008.41
2016-09-16T01:54:11.430Z,1008.48
2016-09-16T01:55:22.437Z,1008.51
2016-09-16T01:56:33.648Z,1008.52
2016-09-16T01:57:44.656Z,1008.53
2016-09-16T01:58:55.666Z,1008.56
2016-09-16T02:00:06.676Z,1008.61
2016-09-16T02:01:17.689Z,1008.6
2016-09-16T02:02:28.689Z,1008.6
2016-09-16T02:03:39.897Z,1008.63
2016-09-16T02:04:51.104Z,1008.66
2016-09-16T02:06:02.112Z,1008.68
2016-09-16T02:07:13.131Z,1008.62
2016-09-16T02:08:24.340Z,1008.68
2016-09-16T02:09:35.539Z,1008.72
2016-09-16T02:10:46.555Z,1008.8
2016-09-16T02:11:57.605Z,1008.75
2016-09-16T02:13:08.611Z,1008.8
2016-09-16T02:14:19.617Z,1008.72
2016-09-16T02:15:30.622Z,1008.73
2016-09-16T02:16:41.625Z,1008.66
2016-09-16T02:17:52.618Z,1008.66
2016-09-16T02:19:03.618Z,1008.62
2016-09-16T02:20:14.623Z,1008.66
2016-09-16T02:21:25.631Z,1008.66
2016-09-16T02:22:36.631Z,1008.65
2016-09-16T02:23:47.634Z,1008.74
2016-09-16T02:24:58.646Z,1008.75
2016-09-16T02:26:09.652Z,1008.82
2016-09-16T02:27:20.659Z,1008.79
2016-09-16T02:28:31.684Z,1008.76
2016-09-16T02:29:42.695Z,1008.8
2016-09-16T02:30:53.702Z,1008.86
2016-09-16T02:32:04.710Z,1008.86
2016-09-16T02:33:15.706Z,1008.85
2016-09-16T02:34:26.746Z,1008.84
2016-09-16T02:35:37.746Z,1008.87
2016-09-16T02:36:48.742Z,1008.87
2016-09-16T02:37:59.743Z,1008.87
2016-09-16T02:39:10.741Z,1008.9
2016-09-16T02:40:21.745Z,1008.83
2016-09-16T02:41:32.744Z,1008.79
2016-09-16T02:42:43.939Z,1008.69
2016-09-16T02:43:54.943Z,1008.62
2016-09-16T02:45:05.949Z,1008.63
2016-09-16T02:46:16.945Z,1008.73
2016-09-16T02:47:27.950Z,1008.8
2016-09-16T02:48:38.967Z,1008.84
2016-09-16T02:49:49.967Z,1008.87
2016-09-16T02:51:00.986Z,1008.96
2016-09-16T02:52:11.999Z,1008.98
2016-09-16T02:53:23.005Z,1008.94
2016-09-16T02:54:34.017Z,1008.87
2016-09-16T02:55:45.023Z,1008.86
2016-09-16T02:56:56.024Z,1008.86
2016-09-16T02:58:07.228Z,1008.88
2016-09-16T02:59:18.231Z,1008.88
2016-09-16T03:00:29.230Z,1008.94
2016-09-16T03:01:40.230Z,1009.05
2016-09-16T03:02:51.242Z,1009.08
2016-09-16T03:04:02.246Z,1009.1
2016-09-16T03:05:13.248Z,1009.12
2016-09-16T03:06:24.272Z,1009.08
2016-09-16T03:07:35.281Z,1009.11
2016-09-16T03:08:46.275Z,1009.08
2016-09-16T03:09:57.273Z,1009.05
2016-09-16T03:11:08.276Z,1009.01
2016-09-16T03:12:19.281Z,1008.95
2016-09-16T03:13:30.479Z,1008.86
2016-09-16T03:14:41.485Z,1008.86
2016-09-16T03:15:52.490Z,1008.81
2016-09-16T03:17:03.493Z,1008.76
2016-09-16T03:18:14.506Z,1008.7
2016-09-16T03:19:25.701Z,1008.65
2016-09-16T03:20:36.720Z,1008.69
2016-09-16T03:21:47.727Z,1008.7
2016-09-16T03:22:58.733Z,1008.71
2016-09-16T03:24:09.742Z,1008.75
2016-09-16T03:25:20.770Z,1008.72
2016-09-16T03:26:31.768Z,1008.71
2016-09-16T03:27:42.762Z,1008.74
2016-09-16T03:28:53.757Z,1008.71
2016-09-16T03:30:04.777Z,1008.75
2016-09-16T03:31:15.776Z,1008.68
2016-09-16T03:32:26.972Z,1008.72
2016-09-16T03:33:38.170Z,1008.67
2016-09-16T03:34:49.182Z,1008.66
2016-09-16T03:36:00.374Z,1008.62
2016-09-16T03:37:11.392Z,1008.61
2016-09-16T03:38:22.403Z,1008.62
2016-09-16T03:39:33.415Z,1008.63
2016-09-16T03:40:44.628Z,1008.64
2016-09-16T03:41:55.629Z,1008.62
2016-09-16T03:43:06.838Z,1008.64
2016-09-16T03:44:18.052Z,1008.68
2016-09-16T03:45:29.058Z,1008.65
2016-09-16T03:46:40.065Z,1008.69
2016-09-16T03:47:51.074Z,1008.68
2016-09-16T03:49:02.100Z,1008.66
2016-09-16T03:50:13.098Z,1008.63
2016-09-16T03:51:24.307Z,1008.67
2016-09-16T03:52:35.510Z,1008.62
2016-09-16T03:53:46.518Z,1008.6
2016-09-16T03:54:57.528Z,1008.62
2016-09-16T03:56:08.550Z,1008.62
2016-09-16T03:57:19.551Z,1008.63
2016-09-16T03:58:30.774Z,1008.63
2016-09-16T03:59:41.786Z,1008.63
2016-09-16T04:00:52.794Z,1008.66
2016-09-16T04:02:03.794Z,1008.65
2016-09-16T04:03:14.793Z,1008.68
2016-09-16T04:04:25.800Z,1008.7
2016-09-16T04:05:36.804Z,1008.68
2016-09-16T04:06:47.810Z,1008.68
2016-09-16T04:07:58.814Z,1008.68
2016-09-16T04:09:09.814Z,1008.7
2016-09-16T04:10:20.832Z,1008.72
2016-09-16T04:11:31.842Z,1008.74
2016-09-16T04:12:42.860Z,1008.73
2016-09-16T04:13:53.863Z,1008.69
2016-09-16T04:15:04.865Z,1008.69
2016-09-16T04:16:15.894Z,1008.66
2016-09-16T04:17:26.898Z,1008.65
2016-09-16T04:18:37.898Z,1008.66
2016-09-16T04:19:48.904Z,1008.66
2016-09-16T04:20:59.908Z,1008.66
2016-09-16T04:22:10.917Z,1008.72
2016-09-16T04:23:21.928Z,1008.68
2016-09-16T04:24:32.978Z,1008.65
2016-09-16T04:25:44.386Z,1008.7
2016-09-16T04:26:55.388Z,1008.7
2016-09-16T04:28:06.387Z,1008.74
2016-09-16T04:29:17.590Z,1008.71
2016-09-16T04:30:28.589Z,1008.67
2016-09-16T04:31:39.597Z,1008.63
2016-09-16T04:32:50.607Z,1008.63
2016-09-16T04:34:01.625Z,1008.61
2016-09-16T04:35:12.844Z,1008.58
2016-09-16T04:36:23.841Z,1008.57
2016-09-16T04:37:34.856Z,1008.63
2016-09-16T04:38:45.858Z,1008.61
2016-09-16T04:39:56.868Z,1008.7
2016-09-16T04:41:07.871Z,1008.66
2016-09-16T04:42:18.867Z,1008.69
2016-09-16T04:43:29.876Z,1008.68
2016-09-16T04:44:40.887Z,1008.67
2016-09-16T04:45:51.893Z,1008.66
2016-09-16T04:47:02.894Z,1008.66
2016-09-16T04:48:13.902Z,1008.64
2016-09-16T04:49:24.900Z,1008.62
2016-09-16T04:50:35.897Z,1008.67
2016-09-16T04:51:46.902Z,1008.66
2016-09-16T04:52:57.896Z,1008.67
2016-09-16T04:54:08.904Z,1008.64
2016-09-16T04:55:19.918Z,1008.66
2016-09-16T04:56:30.919Z,1008.67
2016-09-16T04:57:41.910Z,1008.63
2016-09-16T04:58:53.112Z,1008.65
2016-09-16T05:00:04.131Z,1008.67
2016-09-16T05:01:15.149Z,1008.66
2016-09-16T05:02:26.159Z,1008.66
2016-09-16T05:03:37.163Z,1008.65
2016-09-16T05:04:48.168Z,1008.65
2016-09-16T05:05:59.170Z,1008.62
2016-09-16T05:07:10.166Z,1008.66
2016-09-16T05:08:21.167Z,1008.65
2016-09-16T05:09:32.178Z,1008.62
2016-09-16T05:10:43.383Z,1008.6
2016-09-16T05:11:54.387Z,1008.63
2016-09-16T05:13:05.440Z,1008.59
2016-09-16T05:14:16.452Z,1008.65
2016-09-16T05:15:27.447Z,1008.66
2016-09-16T05:16:38.448Z,1008.67
2016-09-16T05:17:49.443Z,1008.7
2016-09-16T05:19:00.438Z,1008.67
2016-09-16T05:20:11.446Z,1008.7
2016-09-16T05:21:22.445Z,1008.73
2016-09-16T05:22:33.442Z,1008.7
2016-09-16T05:23:44.444Z,1008.7
2016-09-16T05:24:55.447Z,1008.75
2016-09-16T05:26:06.463Z,1008.72
2016-09-16T05:27:17.462Z,1008.76
2016-09-16T05:28:28.469Z,1008.76
2016-09-16T05:29:39.464Z,1008.77
2016-09-16T05:30:50.458Z,1008.83
2016-09-16T05:32:01.465Z,1008.85
2016-09-16T05:33:12.471Z,1008.85
2016-09-16T05:34:23.702Z,1008.86
2016-09-16T05:35:34.715Z,1008.87
2016-09-16T05:36:45.717Z,1008.86
2016-09-16T05:37:56.932Z,1008.86
2016-09-16T05:39:07.938Z,1008.81
2016-09-16T05:40:18.936Z,1008.86
2016-09-16T05:41:29.935Z,1008.8
2016-09-16T05:42:40.946Z,1008.86
2016-09-16T05:43:51.944Z,1008.8
2016-09-16T05:45:02.951Z,1008.79
2016-09-16T05:46:13.952Z,1008.8
2016-09-16T05:47:25.165Z,1008.83
2016-09-16T05:48:36.172Z,1008.84
2016-09-16T05:49:47.163Z,1008.84
2016-09-16T05:50:58.167Z,1008.85
2016-09-16T05:52:09.370Z,1008.85
2016-09-16T05:53:20.364Z,1008.86
2016-09-16T05:54:31.377Z,1008.85
2016-09-16T05:55:42.585Z,1008.85
2016-09-16T05:56:53.987Z,1008.87
2016-09-16T05:58:05.007Z,1008.89
2016-09-16T05:59:16.031Z,1008.9
2016-09-16T06:00:27.034Z,1008.93
2016-09-16T06:01:38.036Z,1008.99
2016-09-16T06:02:49.040Z,1008.98
2016-09-16T06:04:00.037Z,1008.97
2016-09-16T06:05:11.244Z,1008.96
2016-09-16T06:06:22.239Z,1008.99
2016-09-16T06:07:33.253Z,1009
2016-09-16T06:08:44.459Z,1008.96
2016-09-16T06:09:55.660Z,1008.99
2016-09-16T06:11:06.658Z,1008.99
2016-09-16T06:12:17.865Z,1009.03
2016-09-16T06:13:28.905Z,1009.05
2016-09-16T06:14:40.122Z,1009.07
2016-09-16T06:15:51.329Z,1009.05
2016-09-16T06:17:02.339Z,1009.07
2016-09-16T06:18:13.342Z,1009.11
2016-09-16T06:19:24.336Z,1009.06
2016-09-16T06:20:35.533Z,1009.09
2016-09-16T06:21:46.536Z,1009.09
2016-09-16T06:22:57.567Z,1009.14
2016-09-16T06:24:08.566Z,1009.12
2016-09-16T06:25:19.579Z,1009.11
2016-09-16T06:26:30.783Z,1009.12
2016-09-16T06:27:41.784Z,1009.18
2016-09-16T06:28:52.783Z,1009.15
2016-09-16T06:30:03.799Z,1009.16
2016-09-16T06:31:14.804Z,1009.18
2016-09-16T06:32:26.015Z,1009.13
2016-09-16T06:33:37.025Z,1009.17
2016-09-16T06:34:48.027Z,1009.21
2016-09-16T06:35:59.034Z,1009.15
2016-09-16T06:37:10.029Z,1009.19
2016-09-16T06:38:21.037Z,1009.23
2016-09-16T06:39:32.038Z,1009.28
2016-09-16T06:40:43.233Z,1009.31
2016-09-16T06:41:54.243Z,1009.31
2016-09-16T06:43:05.255Z,1009.34
2016-09-16T06:44:16.258Z,1009.31
2016-09-16T06:45:27.264Z,1009.26
2016-09-16T06:46:38.279Z,1009.3
2016-09-16T06:47:49.287Z,1009.19
2016-09-16T06:49:00.291Z,1009.21
2016-09-16T06:50:11.298Z,1009.25
2016-09-16T06:51:22.321Z,1009.28
2016-09-16T06:52:33.725Z,1009.3
2016-09-16T06:53:44.717Z,1009.26
2016-09-16T06:54:55.720Z,1009.19
2016-09-16T06:56:06.727Z,1009.21
2016-09-16T06:57:17.736Z,1009.19
2016-09-16T06:58:28.738Z,1009.21
2016-09-16T06:59:39.752Z,1009.2
2016-09-16T07:00:50.762Z,1009.21
2016-09-16T07:02:01.778Z,1009.17
2016-09-16T07:03:12.993Z,1009.21
2016-09-16T07:04:24.006Z,1009.18
2016-09-16T07:05:35.210Z,1009.19
2016-09-16T07:06:46.214Z,1009.24
2016-09-16T07:07:57.221Z,1009.28
2016-09-16T07:09:08.228Z,1009.27
2016-09-16T07:10:19.452Z,1009.27
2016-09-16T07:11:30.466Z,1009.27
2016-09-16T07:12:41.488Z,1009.29
2016-09-16T07:13:52.500Z,1009.26
2016-09-16T07:15:03.704Z,1009.24
2016-09-16T07:16:14.703Z,1009.27
2016-09-16T07:17:25.709Z,1009.26
2016-09-16T07:18:36.723Z,1009.32
2016-09-16T07:19:47.748Z,1009.3
2016-09-16T07:20:58.949Z,1009.29
2016-09-16T07:22:09.943Z,1009.28
2016-09-16T07:23:21.151Z,1009.33
2016-09-16T07:24:32.154Z,1009.35
2016-09-16T07:25:43.159Z,1009.37
2016-09-16T07:26:54.168Z,1009.33
2016-09-16T07:28:05.179Z,1009.34
2016-09-16T07:29:16.394Z,1009.33
2016-09-16T07:30:27.405Z,1009.4
2016-09-16T07:31:38.414Z,1009.37
2016-09-16T07:32:49.419Z,1009.46
2016-09-16T07:34:00.428Z,1009.5
2016-09-16T07:35:11.438Z,1009.48
2016-09-16T07:36:22.448Z,1009.39
2016-09-16T07:37:33.452Z,1009.43
2016-09-16T07:38:44.455Z,1009.41
2016-09-16T07:39:55.470Z,1009.44
2016-09-16T07:41:06.479Z,1009.44
2016-09-16T07:42:17.481Z,1009.49
2016-09-16T07:43:28.487Z,1009.47
2016-09-16T07:44:39.491Z,1009.51
2016-09-16T07:45:50.507Z,1009.46
2016-09-16T07:47:01.512Z,1009.39
2016-09-16T07:48:12.519Z,1009.39
2016-09-16T07:49:23.543Z,1009.32
2016-09-16T07:50:34.551Z,1009.42
2016-09-16T07:51:45.763Z,1009.4
2016-09-16T07:52:56.772Z,1009.42
2016-09-16T07:54:07.773Z,1009.43
2016-09-16T07:55:18.795Z,1009.47
2016-09-16T07:56:29.811Z,1009.48
2016-09-16T07:57:40.819Z,1009.44
2016-09-16T07:58:51.832Z,1009.46
2016-09-16T08:00:02.845Z,1009.53
2016-09-16T08:01:13.863Z,1009.49
2016-09-16T08:02:25.076Z,1009.53
2016-09-16T08:03:36.089Z,1009.46
2016-09-16T08:04:47.094Z,1009.43
2016-09-16T08:05:58.106Z,1009.41
2016-09-16T08:07:09.123Z,1009.47
2016-09-16T08:08:20.130Z,1009.49
2016-09-16T08:09:31.147Z,1009.46
2016-09-16T08:10:42.166Z,1009.42
2016-09-16T08:11:53.184Z,1009.36
2016-09-16T08:13:04.393Z,1009.52
2016-09-16T08:14:15.654Z,1009.52
2016-09-16T08:15:26.676Z,1009.53
2016-09-16T08:16:37.675Z,1009.48
2016-09-16T08:17:48.684Z,1009.51
2016-09-16T08:18:59.697Z,1009.56
2016-09-16T08:20:10.916Z,1009.6
2016-09-16T08:21:21.929Z,1009.59
2016-09-16T08:22:33.130Z,1009.54
2016-09-16T08:23:44.143Z,1009.59
2016-09-16T08:24:55.150Z,1009.55
2016-09-16T08:26:06.362Z,1009.54
2016-09-16T08:27:17.370Z,1009.54
2016-09-16T08:28:28.384Z,1009.52
2016-09-16T08:29:39.390Z,1009.5
2016-09-16T08:30:50.403Z,1009.53
2016-09-16T08:32:01.812Z,1009.56
2016-09-16T08:33:12.816Z,1009.6
2016-09-16T08:34:23.832Z,1009.6
2016-09-16T08:35:34.838Z,1009.62
2016-09-16T08:36:45.856Z,1009.67
2016-09-16T08:37:57.065Z,1009.69
2016-09-16T08:39:08.068Z,1009.68
2016-09-16T08:40:19.085Z,1009.71
2016-09-16T08:41:30.093Z,1009.68
2016-09-16T08:42:41.099Z,1009.65
2016-09-16T08:43:52.101Z,1009.64
2016-09-16T08:45:03.111Z,1009.61
2016-09-16T08:46:14.120Z,1009.69
2016-09-16T08:47:25.130Z,1009.78
2016-09-16T08:48:36.128Z,1009.71
2016-09-16T08:49:47.327Z,1009.74
2016-09-16T08:50:58.346Z,1009.76
2016-09-16T08:52:09.358Z,1009.66
2016-09-16T08:53:20.581Z,1009.57
2016-09-16T08:54:31.589Z,1009.61
2016-09-16T08:55:42.592Z,1009.74
2016-09-16T08:56:53.609Z,1009.64
2016-09-16T08:58:04.611Z,1009.64
2016-09-16T08:59:15.637Z,1009.66
2016-09-16T09:00:26.653Z,1009.7
2016-09-16T09:01:37.660Z,1009.56
2016-09-16T09:02:48.661Z,1009.6
2016-09-16T09:03:59.664Z,1009.61
2016-09-16T09:05:10.667Z,1009.53
2016-09-16T09:06:21.682Z,1009.45
2016-09-16T09:07:32.692Z,1009.45
2016-09-16T09:08:43.697Z,1009.38
2016-09-16T09:09:54.912Z,1009.48
2016-09-16T09:11:05.929Z,1009.52
2016-09-16T09:12:16.937Z,1009.45
2016-09-16T09:13:27.943Z,1009.51
2016-09-16T09:14:38.998Z,1009.51
2016-09-16T09:15:50.006Z,1009.54
2016-09-16T09:17:01.201Z,1009.52
2016-09-16T09:18:12.221Z,1009.48
2016-09-16T09:19:23.433Z,1009.46
2016-09-16T09:20:34.651Z,1009.45
2016-09-16T09:21:45.661Z,1009.49
2016-09-16T09:22:56.670Z,1009.71
2016-09-16T09:24:07.679Z,1009.82
2016-09-16T09:25:18.692Z,1009.9
2016-09-16T09:26:29.700Z,1009.75
2016-09-16T09:27:40.708Z,1009.67
2016-09-16T09:28:51.715Z,1009.77
2016-09-16T09:30:02.728Z,1009.78
2016-09-16T09:31:13.734Z,1009.87
2016-09-16T09:32:24.746Z,1010.04
2016-09-16T09:33:35.756Z,1009.99
2016-09-16T09:34:46.762Z,1010.02
2016-09-16T09:35:57.773Z,1009.91
2016-09-16T09:37:08.782Z,1009.7
2016-09-16T09:38:19.999Z,1009.75
2016-09-16T09:39:31.013Z,1009.73
2016-09-16T09:40:42.030Z,1009.79
2016-09-16T09:41:53.438Z,1009.91
2016-09-16T09:43:04.472Z,1009.84
2016-09-16T09:44:15.482Z,1010.12
2016-09-16T09:45:26.493Z,1009.95
2016-09-16T09:46:37.511Z,1009.84
2016-09-16T09:47:48.530Z,1009.94
2016-09-16T09:48:59.562Z,1009.83
2016-09-16T09:50:10.567Z,1009.7
2016-09-16T09:51:21.580Z,1009.71
2016-09-16T09:52:32.598Z,1009.63
2016-09-16T09:53:43.615Z,1009.61
2016-09-16T09:54:54.629Z,1009.49
2016-09-16T09:56:05.853Z,1009.74
2016-09-16T09:57:16.865Z,1009.76
2016-09-16T09:58:27.884Z,1009.8
2016-09-16T09:59:38.901Z,1009.7
2016-09-16T10:00:49.922Z,1009.72
2016-09-16T10:02:00.947Z,1009.68
2016-09-16T10:03:11.962Z,1009.62
2016-09-16T10:04:23.181Z,1009.67
2016-09-16T10:05:34.209Z,1009.63
2016-09-16T10:06:45.231Z,1009.61
2016-09-16T10:07:56.248Z,1009.6
2016-09-16T10:09:07.485Z,1009.69
2016-09-16T10:10:18.510Z,1009.54
2016-09-16T10:11:29.528Z,1009.48
2016-09-16T10:12:40.548Z,1009.67
2016-09-16T10:13:51.565Z,1009.67
2016-09-16T10:15:02.634Z,1009.57
2016-09-16T10:16:13.653Z,1009.56
2016-09-16T10:17:24.857Z,1009.46
2016-09-16T10:18:35.870Z,1009.42
2016-09-16T10:19:46.886Z,1009.47
2016-09-16T10:20:58.306Z,1009.32
2016-09-16T10:22:09.524Z,1009.32
2016-09-16T10:23:20.544Z,1009.37
2016-09-16T10:24:31.567Z,1009.47
2016-09-16T10:25:42.604Z,1009.47
2016-09-16T10:26:53.831Z,1009.32
2016-09-16T10:28:04.853Z,1009.52
2016-09-16T10:29:15.879Z,1009.55
2016-09-16T10:30:26.936Z,1009.56
2016-09-16T10:31:37.955Z,1009.51
2016-09-16T10:32:49.181Z,1009.55
2016-09-16T10:34:00.203Z,1009.57
2016-09-16T10:35:11.224Z,1009.58
2016-09-16T10:36:22.248Z,1009.52
2016-09-16T10:37:33.270Z,1009.55
2016-09-16T10:38:44.283Z,1009.6
2016-09-16T10:39:55.504Z,1009.6
2016-09-16T10:41:06.522Z,1009.58
2016-09-16T10:42:17.744Z,1009.49
2016-09-16T10:43:28.973Z,1009.43
2016-09-16T10:44:39.993Z,1009.49
2016-09-16T10:45:51.006Z,1009.38
2016-09-16T10:47:02.029Z,1009.46
2016-09-16T10:48:13.066Z,1009.44
2016-09-16T10:49:24.083Z,1009.44
2016-09-16T10:50:35.300Z,1009.44
2016-09-16T10:51:46.324Z,1009.45
2016-09-16T10:52:57.344Z,1009.42
2016-09-16T10:54:08.363Z,1009.46
2016-09-16T10:55:19.384Z,1009.4
2016-09-16T10:56:30.594Z,1009.37
2016-09-16T10:57:41.616Z,1009.37
2016-09-16T10:58:52.632Z,1009.43
2016-09-16T11:00:03.853Z,1009.5
2016-09-16T11:01:14.874Z,1009.44
2016-09-16T11:02:25.897Z,1009.41
2016-09-16T11:03:36.922Z,1009.4
2016-09-16T11:04:47.936Z,1009.4
2016-09-16T11:05:58.966Z,1009.39
2016-09-16T11:07:10.001Z,1009.35
2016-09-16T11:08:21.015Z,1009.24
2016-09-16T11:09:32.040Z,1009.25
2016-09-16T11:10:43.057Z,1009.26
2016-09-16T11:11:54.080Z,1009.27
2016-09-16T11:13:05.106Z,1009.32
2016-09-16T11:14:16.124Z,1009.31
2016-09-16T11:15:27.191Z,1009.45
2016-09-16T11:16:38.211Z,1009.39
2016-09-16T11:17:49.233Z,1009.39
2016-09-16T11:19:00.255Z,1009.35
2016-09-16T11:20:11.472Z,1009.33
2016-09-16T11:21:22.503Z,1009.29
2016-09-16T11:22:33.523Z,1009.36
2016-09-16T11:23:44.535Z,1009.33
2016-09-16T11:24:55.553Z,1009.24
2016-09-16T11:26:06.573Z,1009.22
2016-09-16T11:27:17.577Z,1009.17
2016-09-16T11:28:28.597Z,1009.18
2016-09-16T11:29:39.809Z,1009.16
2016-09-16T11:30:50.824Z,1009.12
2016-09-16T11:32:01.836Z,1009.11
2016-09-16T11:33:12.852Z,1009.02
2016-09-16T11:34:24.075Z,1009.05
2016-09-16T11:35:35.092Z,1009.08
2016-09-16T11:36:46.109Z,1009.06
2016-09-16T11:37:57.126Z,1009.05
2016-09-16T11:39:08.139Z,1009.09
2016-09-16T11:40:19.155Z,1009.08
2016-09-16T11:41:30.162Z,1009.06
2016-09-16T11:42:41.183Z,1009.06
2016-09-16T11:43:52.194Z,1009.08
2016-09-16T11:45:03.203Z,1009.07
2016-09-16T11:46:14.219Z,1009.09
2016-09-16T11:47:25.228Z,1009.11
2016-09-16T11:48:36.247Z,1009.22
2016-09-16T11:49:47.264Z,1009.33
2016-09-16T11:50:58.425Z,1009.25
2016-09-16T11:52:09.440Z,1009.2
2016-09-16T11:53:20.468Z,1009.21
2016-09-16T11:54:31.487Z,1009
2016-09-16T11:55:42.701Z,1008.99
2016-09-16T11:56:53.717Z,1008.95
2016-09-16T11:58:04.732Z,1009.1
2016-09-16T11:59:15.753Z,1009.15
2016-09-16T12:00:26.958Z,1009.25
2016-09-16T12:01:37.969Z,1009.3
2016-09-16T12:02:48.970Z,1009.39
2016-09-16T12:04:00.182Z,1009.72
2016-09-16T12:05:11.200Z,1009.94
2016-09-16T12:06:22.217Z,1010.17
2016-09-16T12:07:33.236Z,1009.8
2016-09-16T12:08:44.245Z,1009.54
2016-09-16T12:09:55.257Z,1009.58
2016-09-16T12:11:06.280Z,1008.91
2016-09-16T12:12:17.492Z,1008.89
2016-09-16T12:13:28.517Z,1008.95
2016-09-16T12:14:39.539Z,1008.93
2016-09-16T12:15:50.615Z,1008.92
2016-09-16T12:17:01.832Z,1008.9
2016-09-16T12:18:12.842Z,1008.9
2016-09-16T12:19:23.868Z,1008.84
2016-09-16T12:20:34.885Z,1008.86
2016-09-16T12:21:46.111Z,1008.87
2016-09-16T12:22:57.144Z,1008.83
2016-09-16T12:24:08.162Z,1008.85
2016-09-16T12:25:19.190Z,1008.82
2016-09-16T12:26:30.215Z,1008.81
2016-09-16T12:27:41.232Z,1008.84
2016-09-16T12:28:52.449Z,1008.73
2016-09-16T12:30:03.476Z,1008.68
2016-09-16T12:31:14.480Z,1008.76
2016-09-16T12:32:25.930Z,1008.83
2016-09-16T12:33:36.949Z,1008.8
2016-09-16T12:34:47.971Z,1008.79
2016-09-16T12:35:58.978Z,1008.73
2016-09-16T12:37:10.181Z,1008.81
2016-09-16T12:38:21.203Z,1008.79
2016-09-16T12:39:32.216Z,1008.84
2016-09-16T12:40:43.234Z,1008.87
2016-09-16T12:41:54.244Z,1008.85
2016-09-16T12:43:05.464Z,1008.75
2016-09-16T12:44:16.679Z,1008.7
2016-09-16T12:45:27.698Z,1008.7
2016-09-16T12:46:38.715Z,1008.69
2016-09-16T12:47:49.732Z,1008.64
2016-09-16T12:49:00.942Z,1008.72
2016-09-16T12:50:11.967Z,1008.72
2016-09-16T12:51:22.986Z,1008.71
2016-09-16T12:52:34.201Z,1008.76
2016-09-16T12:53:45.209Z,1008.72
2016-09-16T12:54:56.215Z,1008.75
2016-09-16T12:56:07.427Z,1008.75
2016-09-16T12:57:18.431Z,1008.75
2016-09-16T12:58:29.652Z,1008.72
2016-09-16T12:59:40.657Z,1008.73
2016-09-16T13:00:51.675Z,1008.71
2016-09-16T13:02:02.690Z,1008.7
2016-09-16T13:03:13.708Z,1008.73
2016-09-16T13:04:24.727Z,1008.77
2016-09-16T13:05:35.742Z,1008.77
2016-09-16T13:06:46.755Z,1008.73
2016-09-16T13:07:57.872Z,1008.73
2016-09-16T13:09:08.877Z,1008.79
2016-09-16T13:10:20.267Z,1008.78
2016-09-16T13:11:31.482Z,1008.77
2016-09-16T13:12:42.507Z,1008.8
2016-09-16T13:13:53.509Z,1008.8
2016-09-16T13:15:04.724Z,1008.84
2016-09-16T13:16:15.782Z,1008.83
2016-09-16T13:17:26.792Z,1008.82
2016-09-16T13:18:37.809Z,1008.78
2016-09-16T13:19:48.821Z,1008.83
2016-09-16T13:20:59.834Z,1008.8
2016-09-16T13:22:10.853Z,1008.79
2016-09-16T13:23:21.861Z,1008.77
2016-09-16T13:24:32.867Z,1008.81
2016-09-16T13:25:43.884Z,1008.79
2016-09-16T13:26:54.888Z,1008.8
2016-09-16T13:28:06.098Z,1008.79
2016-09-16T13:29:17.302Z,1008.74
2016-09-16T13:30:28.316Z,1008.77
2016-09-16T13:31:39.327Z,1008.78
2016-09-16T13:32:50.335Z,1008.75
2016-09-16T13:34:01.346Z,1008.75
2016-09-16T13:35:12.551Z,1008.74
2016-09-16T13:36:23.764Z,1008.73
2016-09-16T13:37:34.763Z,1008.73
2016-09-16T13:38:45.776Z,1008.72
2016-09-16T13:39:56.796Z,1008.74
2016-09-16T13:41:08.008Z,1008.74
2016-09-16T13:42:19.024Z,1008.76
2016-09-16T13:43:30.028Z,1008.73
2016-09-16T13:44:41.036Z,1008.69
2016-09-16T13:45:52.254Z,1008.63
2016-09-16T13:47:03.261Z,1008.68
2016-09-16T13:48:14.279Z,1008.63
2016-09-16T13:49:25.295Z,1008.58
2016-09-16T13:50:36.300Z,1008.57
2016-09-16T13:51:47.320Z,1008.59
2016-09-16T13:52:58.534Z,1008.56
2016-09-16T13:54:09.543Z,1008.55
2016-09-16T13:55:20.559Z,1008.54
2016-09-16T13:56:31.559Z,1008.53
2016-09-16T13:57:42.565Z,1008.54
2016-09-16T13:58:53.572Z,1008.52
2016-09-16T14:00:04.580Z,1008.5
2016-09-16T14:01:15.603Z,1008.56
2016-09-16T14:02:26.819Z,1008.53
2016-09-16T14:03:37.830Z,1008.5
2016-09-16T14:04:48.832Z,1008.51
2016-09-16T14:05:59.850Z,1008.49
2016-09-16T14:07:10.851Z,1008.5
2016-09-16T14:08:21.866Z,1008.48
2016-09-16T14:09:32.887Z,1008.45
2016-09-16T14:10:43.893Z,1008.46
2016-09-16T14:11:54.910Z,1008.43
2016-09-16T14:13:06.118Z,1008.43
2016-09-16T14:14:17.131Z,1008.43
2016-09-16T14:15:28.142Z,1008.42
2016-09-16T14:16:39.194Z,1008.44
2016-09-16T14:17:50.200Z,1008.45
2016-09-16T14:19:01.212Z,1008.44
2016-09-16T14:20:12.237Z,1008.45
2016-09-16T14:21:23.242Z,1008.46
2016-09-16T14:22:34.258Z,1008.47